sensor_id;sensor_type;location;lat;lon;timestamp;temperature;humidity
6518;DHT22;3292;48.944;9.240;2023-05-20T00:00:01;11.40;99.90
6518;DHT22;3292;48.944;9.240;2023-05-20T00:02:29;11.30;99.90
6518;DHT22;3292;48.944;9.240;2023-05-20T00:04:56;11.30;99.90
6518;DHT22;3292;48.944;9.240;2023-05-20T00:07:23;11.30;99.90
6518;DHT22;3292;48.944;9.240;2023-05-20T00:09:50;11.30;99.90
6518;DHT22;3292;48.944;9.240;2023-05-20T00:12:17;11.30;99.90
6518;DHT22;3292;48.944;9.240;2023-05-20T00:14:44;11.30;99.90
6518;DHT22;3292;48.944;9.240;2023-05-20T00:17:11;11.20;99.90
6518;DHT22;3292;48.944;9.240;2023-05-20T00:19:39;11.20;99.90
6518;DHT22;3292;48.944;9.240;2023-05-20T00:22:07;11.20;99.90
6518;DHT22;3292;48.944;9.240;2023-05-20T00:24:34;11.20;99.90
6518;DHT22;3292;48.944;9.240;2023-05-20T00:27:01;11.20;99.90
6518;DHT22;3292;48.944;9.240;2023-05-20T00:29:27;11.20;99.90
6518;DHT22;3292;48.944;9.240;2023-05-20T00:31:55;11.20;99.90
6518;DHT22;3292;48.944;9.240;2023-05-20T00:34:21;11.20;99.90
6518;DHT22;3292;48.944;9.240;2023-05-20T00:36:49;11.10;99.90
6518;DHT22;3292;48.944;9.240;2023-05-20T00:39:16;11.10;99.90
6518;DHT22;3292;48.944;9.240;2023-05-20T00:41:43;11.10;99.90
6518;DHT22;3292;48.944;9.240;2023-05-20T00:44:10;11.10;99.90
6518;DHT22;3292;48.944;9.240;2023-05-20T00:46:37;11.10;99.90
6518;DHT22;3292;48.944;9.240;2023-05-20T00:49:04;11.20;99.90
6518;DHT22;3292;48.944;9.240;2023-05-20T00:51:32;11.20;99.90
6518;DHT22;3292;48.944;9.240;2023-05-20T00:54:00;11.20;99.90
6518;DHT22;3292;48.944;9.240;2023-05-20T00:56:28;11.30;99.90
6518;DHT22;3292;48.944;9.240;2023-05-20T00:58:55;11.30;99.90
6518;DHT22;3292;48.944;9.240;2023-05-20T01:01:23;11.40;99.90
6518;DHT22;3292;48.944;9.240;2023-05-20T01:03:50;11.40;99.90
6518;DHT22;3292;48.944;9.240;2023-05-20T01:06:17;11.40;99.90
6518;DHT22;3292;48.944;9.240;2023-05-20T01:08:44;11.40;99.90
6518;DHT22;3292;48.944;9.240;2023-05-20T01:11:15;11.40;99.90
6518;DHT22;3292;48.944;9.240;2023-05-20T01:13:50;11.40;99.90
6518;DHT22;3292;48.944;9.240;2023-05-20T01:16:21;11.50;99.90
6518;DHT22;3292;48.944;9.240;2023-05-20T01:18:50;11.50;99.90
6518;DHT22;3292;48.944;9.240;2023-05-20T01:21:20;11.50;99.90
6518;DHT22;3292;48.944;9.240;2023-05-20T01:23:48;11.50;99.90
6518;DHT22;3292;48.944;9.240;2023-05-20T01:26:15;11.60;99.90
6518;DHT22;3292;48.944;9.240;2023-05-20T01:28:43;11.60;99.90
6518;DHT22;3292;48.944;9.240;2023-05-20T01:31:13;11.60;99.90
6518;DHT22;3292;48.944;9.240;2023-05-20T01:33:42;11.60;99.90
6518;DHT22;3292;48.944;9.240;2023-05-20T01:36:10;11.60;99.90
6518;DHT22;3292;48.944;9.240;2023-05-20T01:38:39;11.60;99.90
6518;DHT22;3292;48.944;9.240;2023-05-20T01:41:08;11.70;99.90
6518;DHT22;3292;48.944;9.240;2023-05-20T01:43:35;11.60;99.90
6518;DHT22;3292;48.944;9.240;2023-05-20T01:46:05;11.60;99.90
6518;DHT22;3292;48.944;9.240;2023-05-20T01:48:32;11.60;99.90
6518;DHT22;3292;48.944;9.240;2023-05-20T01:50:59;11.60;99.90
6518;DHT22;3292;48.944;9.240;2023-05-20T01:53:25;11.60;99.90
6518;DHT22;3292;48.944;9.240;2023-05-20T01:55:52;11.70;99.90
6518;DHT22;3292;48.944;9.240;2023-05-20T01:58:20;11.60;99.90
6518;DHT22;3292;48.944;9.240;2023-05-20T02:00:47;11.60;99.90
6518;DHT22;3292;48.944;9.240;2023-05-20T02:03:14;11.60;99.90
6518;DHT22;3292;48.944;9.240;2023-05-20T02:05:41;11.60;99.90
6518;DHT22;3292;48.944;9.240;2023-05-20T02:08:08;11.60;99.90
6518;DHT22;3292;48.944;9.240;2023-05-20T02:10:34;11.60;99.90
6518;DHT22;3292;48.944;9.240;2023-05-20T02:13:01;11.60;99.90
6518;DHT22;3292;48.944;9.240;2023-05-20T02:15:29;11.50;99.90
6518;DHT22;3292;48.944;9.240;2023-05-20T02:17:56;11.50;99.90
6518;DHT22;3292;48.944;9.240;2023-05-20T02:20:23;11.50;99.90
6518;DHT22;3292;48.944;9.240;2023-05-20T02:22:50;11.50;99.90
6518;DHT22;3292;48.944;9.240;2023-05-20T02:25:17;11.50;99.90
6518;DHT22;3292;48.944;9.240;2023-05-20T02:27:43;11.40;99.90
6518;DHT22;3292;48.944;9.240;2023-05-20T02:30:10;11.40;99.90
6518;DHT22;3292;48.944;9.240;2023-05-20T02:32:39;11.40;99.90
6518;DHT22;3292;48.944;9.240;2023-05-20T02:35:06;11.40;99.90
6518;DHT22;3292;48.944;9.240;2023-05-20T02:37:33;11.40;99.90
6518;DHT22;3292;48.944;9.240;2023-05-20T02:39:59;11.40;99.90
6518;DHT22;3292;48.944;9.240;2023-05-20T02:42:26;11.50;99.90
6518;DHT22;3292;48.944;9.240;2023-05-20T02:44:53;11.50;99.90
6518;DHT22;3292;48.944;9.240;2023-05-20T02:47:23;11.50;99.90
6518;DHT22;3292;48.944;9.240;2023-05-20T02:49:51;11.50;99.90
6518;DHT22;3292;48.944;9.240;2023-05-20T02:52:18;11.50;99.90
6518;DHT22;3292;48.944;9.240;2023-05-20T02:54:45;11.50;99.90
6518;DHT22;3292;48.944;9.240;2023-05-20T02:57:12;11.50;99.90
6518;DHT22;3292;48.944;9.240;2023-05-20T02:59:39;11.50;99.90
6518;DHT22;3292;48.944;9.240;2023-05-20T03:02:06;11.50;99.90
6518;DHT22;3292;48.944;9.240;2023-05-20T03:04:33;11.50;99.90
6518;DHT22;3292;48.944;9.240;2023-05-20T03:07:04;11.50;99.90
6518;DHT22;3292;48.944;9.240;2023-05-20T03:09:32;11.50;99.90
6518;DHT22;3292;48.944;9.240;2023-05-20T03:11:59;11.50;99.90
6518;DHT22;3292;48.944;9.240;2023-05-20T03:14:25;11.50;99.90
6518;DHT22;3292;48.944;9.240;2023-05-20T03:16:53;11.50;99.90
6518;DHT22;3292;48.944;9.240;2023-05-20T03:19:21;11.50;99.90
6518;DHT22;3292;48.944;9.240;2023-05-20T03:21:48;11.50;99.90
6518;DHT22;3292;48.944;9.240;2023-05-20T03:24:16;11.50;99.90
6518;DHT22;3292;48.944;9.240;2023-05-20T03:26:43;11.50;99.90
6518;DHT22;3292;48.944;9.240;2023-05-20T03:29:11;11.50;99.90
6518;DHT22;3292;48.944;9.240;2023-05-20T03:31:38;11.50;99.90
6518;DHT22;3292;48.944;9.240;2023-05-20T03:34:05;11.50;99.90
6518;DHT22;3292;48.944;9.240;2023-05-20T03:36:32;11.50;99.90
6518;DHT22;3292;48.944;9.240;2023-05-20T03:38:58;11.50;99.90
6518;DHT22;3292;48.944;9.240;2023-05-20T03:41:27;11.50;99.90
6518;DHT22;3292;48.944;9.240;2023-05-20T03:43:54;11.50;99.90
6518;DHT22;3292;48.944;9.240;2023-05-20T03:46:21;11.40;99.90
6518;DHT22;3292;48.944;9.240;2023-05-20T03:48:47;11.40;99.90
6518;DHT22;3292;48.944;9.240;2023-05-20T03:51:14;11.40;99.90
6518;DHT22;3292;48.944;9.240;2023-05-20T03:53:41;11.40;99.90
6518;DHT22;3292;48.944;9.240;2023-05-20T03:56:08;11.50;99.90
6518;DHT22;3292;48.944;9.240;2023-05-20T03:58:36;11.50;99.90
6518;DHT22;3292;48.944;9.240;2023-05-20T04:01:03;11.50;99.90
6518;DHT22;3292;48.944;9.240;2023-05-20T04:03:30;11.50;99.90
6518;DHT22;3292;48.944;9.240;2023-05-20T04:05:56;11.60;99.90
6518;DHT22;3292;48.944;9.240;2023-05-20T04:08:23;11.60;99.90
6518;DHT22;3292;48.944;9.240;2023-05-20T04:10:54;11.60;99.90
6518;DHT22;3292;48.944;9.240;2023-05-20T04:13:20;11.70;99.90
6518;DHT22;3292;48.944;9.240;2023-05-20T04:15:51;11.70;99.90
6518;DHT22;3292;48.944;9.240;2023-05-20T04:18:18;11.70;99.90
6518;DHT22;3292;48.944;9.240;2023-05-20T04:20:45;11.70;99.90
6518;DHT22;3292;48.944;9.240;2023-05-20T04:23:12;11.80;99.90
6518;DHT22;3292;48.944;9.240;2023-05-20T04:25:39;11.80;99.90
6518;DHT22;3292;48.944;9.240;2023-05-20T04:28:06;11.80;99.90
6518;DHT22;3292;48.944;9.240;2023-05-20T04:30:33;11.90;99.90
6518;DHT22;3292;48.944;9.240;2023-05-20T04:33:01;11.90;99.90
6518;DHT22;3292;48.944;9.240;2023-05-20T04:35:28;11.90;99.90
6518;DHT22;3292;48.944;9.240;2023-05-20T04:37:55;11.90;99.90
6518;DHT22;3292;48.944;9.240;2023-05-20T04:40:22;12.00;99.90
6518;DHT22;3292;48.944;9.240;2023-05-20T04:42:48;12.00;99.90
6518;DHT22;3292;48.944;9.240;2023-05-20T04:45:15;12.10;99.90
6518;DHT22;3292;48.944;9.240;2023-05-20T04:47:42;12.10;99.90
6518;DHT22;3292;48.944;9.240;2023-05-20T04:50:11;12.10;99.90
6518;DHT22;3292;48.944;9.240;2023-05-20T04:52:39;12.10;99.90
6518;DHT22;3292;48.944;9.240;2023-05-20T04:55:09;12.10;99.90
6518;DHT22;3292;48.944;9.240;2023-05-20T04:57:36;12.20;99.90
6518;DHT22;3292;48.944;9.240;2023-05-20T05:00:06;12.30;99.90
6518;DHT22;3292;48.944;9.240;2023-05-20T05:02:34;12.30;99.90
6518;DHT22;3292;48.944;9.240;2023-05-20T05:05:02;12.40;99.90
6518;DHT22;3292;48.944;9.240;2023-05-20T05:07:30;12.40;99.90
6518;DHT22;3292;48.944;9.240;2023-05-20T05:09:57;12.50;99.90
6518;DHT22;3292;48.944;9.240;2023-05-20T05:12:23;12.50;99.90
6518;DHT22;3292;48.944;9.240;2023-05-20T05:14:50;12.60;99.90
6518;DHT22;3292;48.944;9.240;2023-05-20T05:17:17;12.70;99.90
6518;DHT22;3292;48.944;9.240;2023-05-20T05:19:44;12.80;99.90
6518;DHT22;3292;48.944;9.240;2023-05-20T05:22:10;12.90;99.90
6518;DHT22;3292;48.944;9.240;2023-05-20T05:24:39;13.00;99.90
6518;DHT22;3292;48.944;9.240;2023-05-20T05:27:06;13.10;99.90
6518;DHT22;3292;48.944;9.240;2023-05-20T05:29:32;13.10;99.90
6518;DHT22;3292;48.944;9.240;2023-05-20T05:31:59;13.20;99.90
6518;DHT22;3292;48.944;9.240;2023-05-20T05:34:26;13.30;99.90
6518;DHT22;3292;48.944;9.240;2023-05-20T05:36:53;13.40;99.90
6518;DHT22;3292;48.944;9.240;2023-05-20T05:39:20;13.50;99.90
6518;DHT22;3292;48.944;9.240;2023-05-20T05:41:48;13.50;99.90
6518;DHT22;3292;48.944;9.240;2023-05-20T05:44:15;13.60;99.90
6518;DHT22;3292;48.944;9.240;2023-05-20T05:46:42;13.80;99.90
6518;DHT22;3292;48.944;9.240;2023-05-20T05:49:09;14.30;99.90
6518;DHT22;3292;48.944;9.240;2023-05-20T05:51:35;15.20;99.90
6518;DHT22;3292;48.944;9.240;2023-05-20T05:54:02;16.20;99.90
6518;DHT22;3292;48.944;9.240;2023-05-20T05:56:29;17.00;99.90
6518;DHT22;3292;48.944;9.240;2023-05-20T05:58:57;17.90;99.90
6518;DHT22;3292;48.944;9.240;2023-05-20T06:01:24;18.70;99.90
6518;DHT22;3292;48.944;9.240;2023-05-20T06:03:51;19.30;99.90
6518;DHT22;3292;48.944;9.240;2023-05-20T06:06:18;19.50;99.90
6518;DHT22;3292;48.944;9.240;2023-05-20T06:08:44;20.20;99.90
6518;DHT22;3292;48.944;9.240;2023-05-20T06:11:11;20.50;99.90
6518;DHT22;3292;48.944;9.240;2023-05-20T06:13:38;20.60;99.90
6518;DHT22;3292;48.944;9.240;2023-05-20T06:16:06;20.90;99.90
6518;DHT22;3292;48.944;9.240;2023-05-20T06:18:33;21.20;99.90
6518;DHT22;3292;48.944;9.240;2023-05-20T06:21:01;21.00;99.90
6518;DHT22;3292;48.944;9.240;2023-05-20T06:23:28;21.10;99.90
6518;DHT22;3292;48.944;9.240;2023-05-20T06:25:56;20.90;99.90
6518;DHT22;3292;48.944;9.240;2023-05-20T06:28:23;20.40;99.90
6518;DHT22;3292;48.944;9.240;2023-05-20T06:30:50;19.80;99.90
6518;DHT22;3292;48.944;9.240;2023-05-20T06:33:20;19.70;99.90
6518;DHT22;3292;48.944;9.240;2023-05-20T06:35:50;19.70;99.90
6518;DHT22;3292;48.944;9.240;2023-05-20T06:38:17;19.90;99.90
6518;DHT22;3292;48.944;9.240;2023-05-20T06:40:44;20.20;99.90
6518;DHT22;3292;48.944;9.240;2023-05-20T06:43:10;19.90;99.90
6518;DHT22;3292;48.944;9.240;2023-05-20T06:45:37;20.20;99.90
6518;DHT22;3292;48.944;9.240;2023-05-20T06:48:04;20.20;99.90
6518;DHT22;3292;48.944;9.240;2023-05-20T06:50:32;19.90;99.90
6518;DHT22;3292;48.944;9.240;2023-05-20T06:52:59;19.90;99.90
6518;DHT22;3292;48.944;9.240;2023-05-20T06:55:26;19.90;99.90
6518;DHT22;3292;48.944;9.240;2023-05-20T06:57:53;19.60;99.90
6518;DHT22;3292;48.944;9.240;2023-05-20T07:00:20;19.50;99.90
6518;DHT22;3292;48.944;9.240;2023-05-20T07:02:47;19.90;99.90
6518;DHT22;3292;48.944;9.240;2023-05-20T07:05:13;20.10;99.90
6518;DHT22;3292;48.944;9.240;2023-05-20T07:07:42;19.80;99.90
6518;DHT22;3292;48.944;9.240;2023-05-20T07:10:09;19.30;99.90
6518;DHT22;3292;48.944;9.240;2023-05-20T07:12:36;18.90;99.90
6518;DHT22;3292;48.944;9.240;2023-05-20T07:15:03;19.00;99.90
6518;DHT22;3292;48.944;9.240;2023-05-20T07:17:29;19.50;99.90
6518;DHT22;3292;48.944;9.240;2023-05-20T07:19:56;19.70;99.90
6518;DHT22;3292;48.944;9.240;2023-05-20T07:22:23;19.90;99.90
6518;DHT22;3292;48.944;9.240;2023-05-20T07:24:51;20.00;99.90
6518;DHT22;3292;48.944;9.240;2023-05-20T07:27:18;20.00;99.90
6518;DHT22;3292;48.944;9.240;2023-05-20T07:29:45;20.00;99.90
6518;DHT22;3292;48.944;9.240;2023-05-20T07:32:11;20.30;99.90
6518;DHT22;3292;48.944;9.240;2023-05-20T07:34:38;20.30;99.90
6518;DHT22;3292;48.944;9.240;2023-05-20T07:37:05;20.20;99.90
6518;DHT22;3292;48.944;9.240;2023-05-20T07:39:34;20.10;99.90
6518;DHT22;3292;48.944;9.240;2023-05-20T07:42:02;20.00;99.90
6518;DHT22;3292;48.944;9.240;2023-05-20T07:44:29;20.30;99.90
6518;DHT22;3292;48.944;9.240;2023-05-20T07:46:56;20.20;99.90
6518;DHT22;3292;48.944;9.240;2023-05-20T07:49:23;20.30;99.90
6518;DHT22;3292;48.944;9.240;2023-05-20T07:51:50;20.40;99.90
6518;DHT22;3292;48.944;9.240;2023-05-20T07:54:16;20.50;99.90
6518;DHT22;3292;48.944;9.240;2023-05-20T07:56:43;20.50;99.90
6518;DHT22;3292;48.944;9.240;2023-05-20T07:59:12;20.50;99.90
6518;DHT22;3292;48.944;9.240;2023-05-20T08:01:40;20.50;99.90
6518;DHT22;3292;48.944;9.240;2023-05-20T08:04:07;20.70;99.90
6518;DHT22;3292;48.944;9.240;2023-05-20T08:06:34;20.80;99.90
6518;DHT22;3292;48.944;9.240;2023-05-20T08:09:01;21.10;99.90
6518;DHT22;3292;48.944;9.240;2023-05-20T08:11:28;21.30;99.90
6518;DHT22;3292;48.944;9.240;2023-05-20T08:13:55;21.60;99.90
6518;DHT22;3292;48.944;9.240;2023-05-20T08:16:23;21.80;99.90
6518;DHT22;3292;48.944;9.240;2023-05-20T08:18:50;21.80;99.90
6518;DHT22;3292;48.944;9.240;2023-05-20T08:21:17;21.60;99.90
6518;DHT22;3292;48.944;9.240;2023-05-20T08:23:44;21.40;99.90
6518;DHT22;3292;48.944;9.240;2023-05-20T08:26:10;21.20;99.90
6518;DHT22;3292;48.944;9.240;2023-05-20T08:28:38;20.80;99.90
6518;DHT22;3292;48.944;9.240;2023-05-20T08:31:05;20.50;99.90
6518;DHT22;3292;48.944;9.240;2023-05-20T08:33:33;20.40;99.90
6518;DHT22;3292;48.944;9.240;2023-05-20T08:35:59;20.50;99.90
6518;DHT22;3292;48.944;9.240;2023-05-20T08:38:26;20.10;99.90
6518;DHT22;3292;48.944;9.240;2023-05-20T08:40:55;20.10;99.90
6518;DHT22;3292;48.944;9.240;2023-05-20T08:43:22;20.20;99.90
6518;DHT22;3292;48.944;9.240;2023-05-20T08:45:49;20.40;99.90
6518;DHT22;3292;48.944;9.240;2023-05-20T08:48:17;20.30;99.90
6518;DHT22;3292;48.944;9.240;2023-05-20T08:50:49;20.30;99.90
6518;DHT22;3292;48.944;9.240;2023-05-20T08:53:16;20.30;99.90
6518;DHT22;3292;48.944;9.240;2023-05-20T08:55:46;20.20;99.90
6518;DHT22;3292;48.944;9.240;2023-05-20T08:58:14;20.40;99.90
6518;DHT22;3292;48.944;9.240;2023-05-20T09:00:44;20.90;99.90
6518;DHT22;3292;48.944;9.240;2023-05-20T09:03:10;20.90;99.90
6518;DHT22;3292;48.944;9.240;2023-05-20T09:05:37;21.00;99.90
6518;DHT22;3292;48.944;9.240;2023-05-20T09:08:06;21.10;99.90
6518;DHT22;3292;48.944;9.240;2023-05-20T09:10:33;21.00;99.90
6518;DHT22;3292;48.944;9.240;2023-05-20T09:13:01;21.10;99.90
6518;DHT22;3292;48.944;9.240;2023-05-20T09:15:28;21.20;99.90
6518;DHT22;3292;48.944;9.240;2023-05-20T09:17:58;21.40;99.90
6518;DHT22;3292;48.944;9.240;2023-05-20T09:20:25;21.60;99.90
6518;DHT22;3292;48.944;9.240;2023-05-20T09:22:57;21.70;99.90
6518;DHT22;3292;48.944;9.240;2023-05-20T09:25:25;21.90;99.90
6518;DHT22;3292;48.944;9.240;2023-05-20T09:27:52;22.20;99.90
6518;DHT22;3292;48.944;9.240;2023-05-20T09:30:19;22.50;99.90
6518;DHT22;3292;48.944;9.240;2023-05-20T09:32:52;22.70;99.90
6518;DHT22;3292;48.944;9.240;2023-05-20T09:35:20;22.90;99.90
6518;DHT22;3292;48.944;9.240;2023-05-20T09:37:47;23.00;99.90
6518;DHT22;3292;48.944;9.240;2023-05-20T09:40:14;22.80;99.90
6518;DHT22;3292;48.944;9.240;2023-05-20T09:42:51;23.10;99.90
6518;DHT22;3292;48.944;9.240;2023-05-20T09:45:18;23.20;99.90
6518;DHT22;3292;48.944;9.240;2023-05-20T09:47:47;22.80;99.90
6518;DHT22;3292;48.944;9.240;2023-05-20T09:50:16;22.50;99.90
6518;DHT22;3292;48.944;9.240;2023-05-20T09:52:46;22.40;99.90
6518;DHT22;3292;48.944;9.240;2023-05-20T09:55:14;22.50;99.90
6518;DHT22;3292;48.944;9.240;2023-05-20T09:57:43;22.60;99.90
6518;DHT22;3292;48.944;9.240;2023-05-20T10:00:10;22.60;99.90
6518;DHT22;3292;48.944;9.240;2023-05-20T10:02:42;22.50;99.90
6518;DHT22;3292;48.944;9.240;2023-05-20T10:05:13;22.50;99.90
6518;DHT22;3292;48.944;9.240;2023-05-20T10:08:19;22.50;99.90
6518;DHT22;3292;48.944;9.240;2023-05-20T10:10:51;22.50;99.90
6518;DHT22;3292;48.944;9.240;2023-05-20T10:13:32;22.50;99.90
6518;DHT22;3292;48.944;9.240;2023-05-20T10:16:08;22.40;99.90
6518;DHT22;3292;48.944;9.240;2023-05-20T10:18:46;22.20;99.90
6518;DHT22;3292;48.944;9.240;2023-05-20T10:21:15;22.30;99.90
6518;DHT22;3292;48.944;9.240;2023-05-20T10:23:43;22.30;99.90
6518;DHT22;3292;48.944;9.240;2023-05-20T10:26:10;22.00;99.90
6518;DHT22;3292;48.944;9.240;2023-05-20T10:28:40;22.20;99.90
6518;DHT22;3292;48.944;9.240;2023-05-20T10:31:19;22.40;99.90
6518;DHT22;3292;48.944;9.240;2023-05-20T10:33:46;22.70;99.90
6518;DHT22;3292;48.944;9.240;2023-05-20T10:36:23;22.60;99.90
6518;DHT22;3292;48.944;9.240;2023-05-20T10:38:55;22.40;99.90
6518;DHT22;3292;48.944;9.240;2023-05-20T10:41:23;22.50;99.90
6518;DHT22;3292;48.944;9.240;2023-05-20T10:44:03;22.70;99.90
6518;DHT22;3292;48.944;9.240;2023-05-20T10:46:30;23.10;99.90
6518;DHT22;3292;48.944;9.240;2023-05-20T10:48:57;23.40;99.90
6518;DHT22;3292;48.944;9.240;2023-05-20T10:51:24;23.10;99.90
6518;DHT22;3292;48.944;9.240;2023-05-20T10:53:54;23.20;99.90
6518;DHT22;3292;48.944;9.240;2023-05-20T10:56:23;23.30;99.90
6518;DHT22;3292;48.944;9.240;2023-05-20T10:58:51;23.40;99.90
6518;DHT22;3292;48.944;9.240;2023-05-20T11:01:25;23.30;99.90
6518;DHT22;3292;48.944;9.240;2023-05-20T11:03:53;23.10;99.90
6518;DHT22;3292;48.944;9.240;2023-05-20T11:06:27;23.20;99.90
6518;DHT22;3292;48.944;9.240;2023-05-20T11:08:54;23.50;99.90
6518;DHT22;3292;48.944;9.240;2023-05-20T11:11:21;23.50;99.90
6518;DHT22;3292;48.944;9.240;2023-05-20T11:13:49;23.60;99.90
6518;DHT22;3292;48.944;9.240;2023-05-20T11:16:20;23.90;99.90
6518;DHT22;3292;48.944;9.240;2023-05-20T11:18:48;24.30;99.90
6518;DHT22;3292;48.944;9.240;2023-05-20T11:21:15;24.40;99.90
6518;DHT22;3292;48.944;9.240;2023-05-20T11:23:42;24.00;99.90
6518;DHT22;3292;48.944;9.240;2023-05-20T11:26:09;23.80;99.90
6518;DHT22;3292;48.944;9.240;2023-05-20T11:28:36;23.80;99.90
6518;DHT22;3292;48.944;9.240;2023-05-20T11:31:04;24.00;99.90
6518;DHT22;3292;48.944;9.240;2023-05-20T11:33:32;24.30;99.90
6518;DHT22;3292;48.944;9.240;2023-05-20T11:36:01;24.20;99.90
6518;DHT22;3292;48.944;9.240;2023-05-20T11:38:29;24.20;99.90
6518;DHT22;3292;48.944;9.240;2023-05-20T11:40:56;24.30;99.90
6518;DHT22;3292;48.944;9.240;2023-05-20T11:43:23;24.00;99.90
6518;DHT22;3292;48.944;9.240;2023-05-20T11:45:53;24.00;99.90
6518;DHT22;3292;48.944;9.240;2023-05-20T11:48:20;24.10;99.90
6518;DHT22;3292;48.944;9.240;2023-05-20T11:50:48;24.00;99.90
6518;DHT22;3292;48.944;9.240;2023-05-20T11:53:16;24.10;99.90
6518;DHT22;3292;48.944;9.240;2023-05-20T11:55:45;24.00;99.90
6518;DHT22;3292;48.944;9.240;2023-05-20T11:58:15;24.00;99.90
6518;DHT22;3292;48.944;9.240;2023-05-20T12:00:42;24.00;99.90
6518;DHT22;3292;48.944;9.240;2023-05-20T12:03:08;24.10;99.90
6518;DHT22;3292;48.944;9.240;2023-05-20T12:05:36;24.00;99.90
6518;DHT22;3292;48.944;9.240;2023-05-20T12:08:04;23.50;99.90
6518;DHT22;3292;48.944;9.240;2023-05-20T12:10:31;23.40;99.90
6518;DHT22;3292;48.944;9.240;2023-05-20T12:12:58;23.40;99.90
6518;DHT22;3292;48.944;9.240;2023-05-20T12:15:25;23.50;99.90
6518;DHT22;3292;48.944;9.240;2023-05-20T12:17:53;23.60;99.90
6518;DHT22;3292;48.944;9.240;2023-05-20T12:20:21;23.80;99.90
6518;DHT22;3292;48.944;9.240;2023-05-20T12:22:48;23.80;99.90
6518;DHT22;3292;48.944;9.240;2023-05-20T12:25:17;23.90;99.90
6518;DHT22;3292;48.944;9.240;2023-05-20T12:27:45;23.90;99.90
6518;DHT22;3292;48.944;9.240;2023-05-20T12:30:14;24.00;99.90
6518;DHT22;3292;48.944;9.240;2023-05-20T12:32:41;23.90;99.90
6518;DHT22;3292;48.944;9.240;2023-05-20T12:35:09;23.90;99.90
6518;DHT22;3292;48.944;9.240;2023-05-20T12:37:36;24.00;99.90
6518;DHT22;3292;48.944;9.240;2023-05-20T12:40:04;24.10;99.90
6518;DHT22;3292;48.944;9.240;2023-05-20T12:42:34;24.40;99.90
6518;DHT22;3292;48.944;9.240;2023-05-20T12:45:01;24.60;99.90
6518;DHT22;3292;48.944;9.240;2023-05-20T12:47:28;24.50;99.90
6518;DHT22;3292;48.944;9.240;2023-05-20T12:49:55;24.50;99.90
6518;DHT22;3292;48.944;9.240;2023-05-20T12:52:22;24.50;99.90
6518;DHT22;3292;48.944;9.240;2023-05-20T12:54:49;24.60;99.90
6518;DHT22;3292;48.944;9.240;2023-05-20T12:57:16;24.60;99.90
6518;DHT22;3292;48.944;9.240;2023-05-20T12:59:45;24.70;99.90
6518;DHT22;3292;48.944;9.240;2023-05-20T13:02:11;24.80;99.90
6518;DHT22;3292;48.944;9.240;2023-05-20T13:04:38;24.90;99.90
6518;DHT22;3292;48.944;9.240;2023-05-20T13:07:05;25.20;99.90
6518;DHT22;3292;48.944;9.240;2023-05-20T13:09:32;25.60;99.90
6518;DHT22;3292;48.944;9.240;2023-05-20T13:11:59;25.40;99.90
6518;DHT22;3292;48.944;9.240;2023-05-20T13:14:26;25.00;99.90
6518;DHT22;3292;48.944;9.240;2023-05-20T13:16:54;24.80;99.90
6518;DHT22;3292;48.944;9.240;2023-05-20T13:19:21;24.70;99.90
6518;DHT22;3292;48.944;9.240;2023-05-20T13:21:48;24.60;99.90
6518;DHT22;3292;48.944;9.240;2023-05-20T13:24:15;24.80;99.90
6518;DHT22;3292;48.944;9.240;2023-05-20T13:26:41;25.20;99.90
6518;DHT22;3292;48.944;9.240;2023-05-20T13:29:10;25.20;99.90
6518;DHT22;3292;48.944;9.240;2023-05-20T13:31:37;24.80;99.90
6518;DHT22;3292;48.944;9.240;2023-05-20T13:34:05;24.40;99.90
6518;DHT22;3292;48.944;9.240;2023-05-20T13:36:32;24.50;99.90
6518;DHT22;3292;48.944;9.240;2023-05-20T13:38:59;24.60;99.90
6518;DHT22;3292;48.944;9.240;2023-05-20T13:41:26;25.00;99.90
6518;DHT22;3292;48.944;9.240;2023-05-20T13:43:52;25.40;99.90
6518;DHT22;3292;48.944;9.240;2023-05-20T13:46:19;25.40;99.90
6518;DHT22;3292;48.944;9.240;2023-05-20T13:48:46;25.30;99.90
6518;DHT22;3292;48.944;9.240;2023-05-20T13:51:14;25.10;99.90
6518;DHT22;3292;48.944;9.240;2023-05-20T13:53:46;25.10;99.90
6518;DHT22;3292;48.944;9.240;2023-05-20T13:56:13;25.00;99.90
6518;DHT22;3292;48.944;9.240;2023-05-20T13:58:40;25.10;99.90
6518;DHT22;3292;48.944;9.240;2023-05-20T14:01:07;25.00;99.90
6518;DHT22;3292;48.944;9.240;2023-05-20T14:03:33;25.20;99.90
6518;DHT22;3292;48.944;9.240;2023-05-20T14:06:01;25.40;99.90
6518;DHT22;3292;48.944;9.240;2023-05-20T14:08:30;25.30;99.90
6518;DHT22;3292;48.944;9.240;2023-05-20T14:10:56;25.50;99.90
6518;DHT22;3292;48.944;9.240;2023-05-20T14:13:24;25.70;99.90
6518;DHT22;3292;48.944;9.240;2023-05-20T14:15:51;25.50;99.90
6518;DHT22;3292;48.944;9.240;2023-05-20T14:18:19;25.30;99.90
6518;DHT22;3292;48.944;9.240;2023-05-20T14:20:46;25.20;99.90
6518;DHT22;3292;48.944;9.240;2023-05-20T14:23:13;25.20;99.90
6518;DHT22;3292;48.944;9.240;2023-05-20T14:25:42;25.00;99.90
6518;DHT22;3292;48.944;9.240;2023-05-20T14:28:08;24.90;99.90
6518;DHT22;3292;48.944;9.240;2023-05-20T14:30:36;24.80;99.90
6518;DHT22;3292;48.944;9.240;2023-05-20T14:33:02;24.60;99.90
6518;DHT22;3292;48.944;9.240;2023-05-20T14:35:29;24.40;99.90
6518;DHT22;3292;48.944;9.240;2023-05-20T14:37:56;24.40;99.90
6518;DHT22;3292;48.944;9.240;2023-05-20T14:40:23;24.40;99.90
6518;DHT22;3292;48.944;9.240;2023-05-20T14:42:52;24.40;99.90
6518;DHT22;3292;48.944;9.240;2023-05-20T14:45:19;24.30;99.90
6518;DHT22;3292;48.944;9.240;2023-05-20T14:47:46;24.30;99.90
6518;DHT22;3292;48.944;9.240;2023-05-20T14:50:16;24.30;99.90
6518;DHT22;3292;48.944;9.240;2023-05-20T14:52:42;24.40;99.90
6518;DHT22;3292;48.944;9.240;2023-05-20T14:55:09;24.50;99.90
6518;DHT22;3292;48.944;9.240;2023-05-20T14:57:36;24.40;99.90
6518;DHT22;3292;48.944;9.240;2023-05-20T15:00:05;24.50;99.90
6518;DHT22;3292;48.944;9.240;2023-05-20T15:02:33;24.40;99.90
6518;DHT22;3292;48.944;9.240;2023-05-20T15:05:00;24.40;99.90
6518;DHT22;3292;48.944;9.240;2023-05-20T15:07:26;24.30;99.90
6518;DHT22;3292;48.944;9.240;2023-05-20T15:09:53;24.30;99.90
6518;DHT22;3292;48.944;9.240;2023-05-20T15:12:20;24.30;99.90
6518;DHT22;3292;48.944;9.240;2023-05-20T15:14:47;24.30;99.90
6518;DHT22;3292;48.944;9.240;2023-05-20T15:17:15;24.30;99.90
6518;DHT22;3292;48.944;9.240;2023-05-20T15:19:41;24.50;99.90
6518;DHT22;3292;48.944;9.240;2023-05-20T15:22:08;24.60;99.90
6518;DHT22;3292;48.944;9.240;2023-05-20T15:24:35;24.60;99.90
6518;DHT22;3292;48.944;9.240;2023-05-20T15:27:02;24.70;99.90
6518;DHT22;3292;48.944;9.240;2023-05-20T15:29:29;24.60;99.90
6518;DHT22;3292;48.944;9.240;2023-05-20T15:31:56;24.60;99.90
6518;DHT22;3292;48.944;9.240;2023-05-20T15:34:24;24.50;99.90
6518;DHT22;3292;48.944;9.240;2023-05-20T15:36:50;24.50;99.90
6518;DHT22;3292;48.944;9.240;2023-05-20T15:39:17;24.40;99.90
6518;DHT22;3292;48.944;9.240;2023-05-20T15:41:44;24.40;99.90
6518;DHT22;3292;48.944;9.240;2023-05-20T15:44:12;24.30;99.90
6518;DHT22;3292;48.944;9.240;2023-05-20T15:46:39;24.20;99.90
6518;DHT22;3292;48.944;9.240;2023-05-20T15:49:06;24.10;99.90
6518;DHT22;3292;48.944;9.240;2023-05-20T15:51:34;24.10;99.90
6518;DHT22;3292;48.944;9.240;2023-05-20T15:54:00;24.00;99.90
6518;DHT22;3292;48.944;9.240;2023-05-20T15:56:28;24.00;99.90
6518;DHT22;3292;48.944;9.240;2023-05-20T15:58:55;23.90;99.90
6518;DHT22;3292;48.944;9.240;2023-05-20T16:01:22;23.80;99.90
6518;DHT22;3292;48.944;9.240;2023-05-20T16:03:50;23.80;99.90